Relevés horaires Bouveret (Suisse)


Relevés horaires à Bouveret - Mardi 03 Avr. 2018
Heure UTC1 Température [°C] Vent [km/h] Hum. [%] Pres.4 [hPa] Visi. [Km] Nébu. [octa] Préc.5 [mm] Cond.
2m. Res. Ros. Dir.2 Vit. Moy. Raf.3
23:00 10.1 8.9 5.1 O 9.3 -- 14.8 71 1007.5(1.2/3h) -- -- -- --
23:00 10.1 8.9 5.1 O 9.3 -- 14.8 71 1007.5(1.2/3h) -- -- -- --
22:00 9.5 7.6 5.7 NNO 13.0 -- 18.5 77 1007.7(1.1/3h) -- -- -- --
21:00 11.9 11.4 3.6 O 7.4 -- 42.6 57 1006.7(0.9/3h) -- -- -- --
20:00 14.3 13.9 2.3 SO 9.3 -- 38.9 44 1005.5(0.4/3h) -- -- -- --
19:00 12.6 11.8 3.8 OSO 9.3 -- 42.6 55 1006(0.6/3h) -- -- -- --
18:00 12.5 10.7 4.2 O 18.5 -- 40.7 57 1005.7(-1.0/3h) -- -- -- --
17:00 11.6 9.7 4.1 O 16.7 -- 38.9 60 1005.5(-1.7/3h) -- -- -- --
16:00 14.2 14 2.1 ESE 7.4 -- 11.1 44 1005.1(-1.5/3h) -- -- -- --
16:00 14.2 14 2.1 ESE 7.4 -- 11.1 44 1005.1(-1.5/3h) -- -- -- --
15:00 12.2 12.2 2.0 NE 1.9 -- 40.7 50 1006.8(-1.6/3h) -- -- -- --
14:00 12.5 10.7 1.9 ONO 18.5 -- 40.7 48 1007.2(0.2/3h) -- -- -- --
13:00 14.8 13.3 2.3 OSO 22.2 -- 40.7 43 1006.6(-0.5/3h) -- -- -- --
12:00 11.4 9.7 1.6 O 14.8 -- 63.0 51 1008.6(0.2/3h) -- -- -- --
11:00 15.5 13.7 0.7 S 31.5 -- 59.3 36 1006.5(-1.1/3h) -- -- -- --
10:00 12.4 10.9 3.1 SO 14.8 -- 63.0 53 1007.5(-0.3/3h) -- -- -- --
09:00 13.2 11.4 2.4 S 20.4 -- 53.7 48 1008.1(0.5/3h) -- -- -- --
08:00 12.4 10.7 2.4 SSO 16.7 -- 48.2 50 1008.1(0.3/3h) -- -- -- --
07:00 11.1 9.5 2.1 O 13.0 -- 29.6 54 1008(0.0/3h) -- -- -- --
06:00 11.7 9.8 1.3 OSO 16.7 -- 46.3 49 1007.8(-0.5/3h) -- -- -- --
05:00 10.9 9.5 2.0 O 11.1 -- 25.9 54 1008.1(-0.5/3h) -- -- -- --
04:00 11.3 9.8 1.9 O 13.0 -- 22.2 52 1008(-0.8/3h) -- -- -- --
03:00 10.6 10.6 2.1 O 1.9 -- 46.3 56 1008.5(-0.8/3h) -- -- -- --
02:00 10.8 9.7 2.7 O 9.3 -- 24.1 57 1008.6(-0.7/3h) -- -- -- --

1 Coordinated Universal Time. Actuellement il est 13:00 locale et 11:00 UTC.

2 Le vent souffle depuis la direction indiquée vers la direction oposée.

3 Les rafales max. sont disponible 40 min après l'heure du relevé.

4 Pour les stations d'altitude (plus de 600m) le géopotentiel du niveau le plus proche de la pression obligatoire est indiqué.

5 Les stations disposant d'un diffuseur peuvent indiquer "trace". Cela signifie que des précipitations ont touchés le sol mais que la quantité est inférieure à 0.1 mm.

Copyright

Les données affichées sur cette page sont la propriété exclusive de Météo Suisse.

Récapitulatif de la journée
Température [°C] Vent [km/h] Ensoleillement4 [h] Precipitations totale5 [mm] Pression [Hpa]
Min1 Max.2 Moy.3 Max. Min Max.
7.9 16.4 0 63.0 0 h 0 min 0 1005.1 1008.6

1 Température minimale relevée entre 18:00 UTC la veille et 18:00 UTC le jour donné.

2 Température maximale relevée entre 06:00 UTC le jour donné et 06:00 UTC le lendemain.

3 Vent moyen de la journée basé sur les relevés horaires.

4 Ensoleillement en heures relevé entre 06:00 UTC la veille et 06:00 UTC le jour donné.

5 Précipitations totales tombées entre 06:00 UTC la jour donné et 06:00 UTC le lendemain.

Graphiques horaires